createdAt,value
2019-04-28T00:02:15.662Z,98509.00
2019-04-28T00:05:21.105Z,98511.09
2019-04-28T00:08:25.622Z,98514.71
2019-04-28T00:11:31.675Z,98514.77
2019-04-28T00:14:36.560Z,98516.55
2019-04-28T00:17:41.988Z,98513.61
2019-04-28T00:20:46.272Z,98513.48
2019-04-28T00:23:53.173Z,98504.57
2019-04-28T00:26:59.289Z,98499.32
2019-04-28T00:30:07.374Z,98496.28
2019-04-28T00:33:11.797Z,98496.79
2019-04-28T00:36:16.645Z,98496.66
2019-04-28T00:39:22.694Z,98500.95
2019-04-28T00:42:27.283Z,98509.00
2019-04-28T00:45:31.963Z,98501.25
2019-04-28T00:48:36.387Z,98500.64
2019-04-28T00:51:41.546Z,98493.83
2019-04-28T00:54:47.201Z,98495.52
2019-04-28T00:57:51.907Z,98495.57
2019-04-28T01:01:07.924Z,98494.49
2019-04-28T01:04:12.426Z,98493.52
2019-04-28T01:07:16.867Z,98490.28
2019-04-28T01:10:22.335Z,98500.17
2019-04-28T01:13:26.759Z,98491.97
2019-04-28T01:16:36.079Z,98489.01
2019-04-28T01:19:54.249Z,98492.73
2019-04-28T01:23:00.469Z,98490.73
2019-04-28T01:26:05.083Z,98486.53
2019-04-28T01:29:09.932Z,98496.12
2019-04-28T01:32:32.169Z,98498.53
2019-04-28T01:35:37.003Z,98494.17
2019-04-28T01:38:41.737Z,98494.47
2019-04-28T01:41:46.168Z,98491.27
2019-04-28T01:44:50.595Z,98489.66
2019-04-28T01:47:55.318Z,98495.22
2019-04-28T01:51:00.049Z,98491.36
2019-04-28T01:54:04.780Z,98499.23
2019-04-28T01:57:10.141Z,98494.61
2019-04-28T02:00:23.064Z,98503.85
2019-04-28T02:03:21.859Z,98511.55
2019-04-28T02:06:26.294Z,98506.53
2019-04-28T02:09:30.718Z,98502.08
2019-04-28T02:12:35.520Z,98505.54
2019-04-28T02:15:40.247Z,98505.94
2019-04-28T02:18:44.682Z,98510.45
2019-04-28T02:21:51.042Z,98503.20
2019-04-28T02:24:55.474Z,98514.11
2019-04-28T02:27:59.908Z,98510.69
2019-04-28T02:31:04.336Z,98507.16
2019-04-28T02:34:11.217Z,98504.08
2019-04-28T02:37:15.205Z,98499.72
2019-04-28T02:40:20.755Z,98502.95
2019-04-28T02:43:25.695Z,98490.98
2019-04-28T02:46:30.877Z,98493.92
2019-04-28T02:49:55.630Z,98499.20
2019-04-28T02:53:02.206Z,98493.27
2019-04-28T02:56:06.812Z,98490.52
2019-04-28T02:59:11.255Z,98486.61
2019-04-28T03:02:15.986Z,98484.16
2019-04-28T03:05:21.659Z,98487.77
2019-04-28T03:08:26.445Z,98479.06
2019-04-28T03:11:31.572Z,98477.34
2019-04-28T03:14:36.072Z,98471.69
2019-04-28T03:17:40.940Z,98471.58
2019-04-28T03:20:45.582Z,98477.02
2019-04-28T03:23:51.614Z,98471.88
2019-04-28T03:27:03.519Z,98473.67
2019-04-28T03:30:25.676Z,98474.55
2019-04-28T03:33:34.111Z,98469.08
2019-04-28T03:36:37.711Z,98468.70
2019-04-28T03:39:42.149Z,98470.44
2019-04-28T03:42:46.877Z,98467.51
2019-04-28T03:45:53.252Z,98474.04
2019-04-28T03:48:57.689Z,98475.16
2019-04-28T03:52:03.614Z,98466.59
2019-04-28T03:55:08.461Z,98469.33
2019-04-28T03:58:13.401Z,98465.41
2019-04-28T04:01:20.438Z,98467.70
2019-04-28T04:04:24.287Z,98460.77
2019-04-28T04:07:31.106Z,98469.71
2019-04-28T04:10:40.613Z,98468.31
2019-04-28T04:13:51.352Z,98473.12
2019-04-28T04:17:02.729Z,98473.25
2019-04-28T04:20:11.007Z,98472.64
2019-04-28T04:23:14.759Z,98472.92
2019-04-28T04:26:21.288Z,98471.11
2019-04-28T04:29:25.350Z,98474.28
2019-04-28T04:32:30.480Z,98476.77
2019-04-28T04:35:36.586Z,98474.70
2019-04-28T04:38:45.827Z,98473.44
2019-04-28T04:41:47.487Z,98479.16
2019-04-28T04:44:51.929Z,98469.63
2019-04-28T04:47:56.341Z,98473.53
2019-04-28T04:51:00.836Z,98473.67
2019-04-28T04:54:05.283Z,98478.02
2019-04-28T04:57:11.077Z,98478.72
2019-04-28T05:00:18.016Z,98484.55
2019-04-28T05:03:33.188Z,98480.73
2019-04-28T05:06:39.952Z,98482.25
2019-04-28T05:09:45.723Z,98485.01
2019-04-28T05:12:51.820Z,98487.62
2019-04-28T05:15:56.722Z,98492.31
2019-04-28T05:19:01.146Z,98495.17
2019-04-28T05:22:06.218Z,98490.46
2019-04-28T05:25:15.322Z,98492.08
2019-04-28T05:28:20.047Z,98500.05
2019-04-28T05:31:24.800Z,98496.70
2019-04-28T05:34:29.731Z,98507.03
2019-04-28T05:37:34.319Z,98506.20
2019-04-28T05:40:39.870Z,98500.94
2019-04-28T05:43:44.725Z,98505.87
2019-04-28T05:46:50.643Z,98506.44
2019-04-28T05:50:00.255Z,98511.61
2019-04-28T05:53:06.466Z,98504.78
2019-04-28T05:56:15.106Z,98514.42
2019-04-28T05:59:23.832Z,98517.56
2019-04-28T06:02:32.983Z,98509.79
2019-04-28T06:05:46.104Z,98513.06
2019-04-28T06:09:04.126Z,98508.99
2019-04-28T06:12:10.516Z,98509.01
2019-04-28T06:15:14.954Z,98502.00
2019-04-28T06:18:20.575Z,98497.03
2019-04-28T06:21:25.189Z,98509.07
2019-04-28T06:24:29.623Z,98499.60
2019-04-28T06:27:34.375Z,98501.86
2019-04-28T06:30:38.829Z,98510.66
2019-04-28T06:33:44.566Z,98510.75
2019-04-28T06:36:49.102Z,98505.72
2019-04-28T06:39:53.536Z,98507.12
2019-04-28T06:42:58.258Z,98506.46
2019-04-28T06:46:02.681Z,98512.42
2019-04-28T06:49:07.120Z,98512.86
2019-04-28T06:52:11.566Z,98517.89
2019-04-28T06:55:16.068Z,98515.70
2019-04-28T06:58:20.764Z,98527.17
2019-04-28T07:01:25.253Z,98530.42
2019-04-28T07:04:29.690Z,98524.05
2019-04-28T07:07:34.136Z,98524.20
2019-04-28T07:10:39.011Z,98516.03
2019-04-28T07:13:43.701Z,98527.36
2019-04-28T07:16:48.433Z,98520.93
2019-04-28T07:19:54.519Z,98523.81
2019-04-28T07:22:58.964Z,98520.58
2019-04-28T07:26:03.645Z,98528.84
2019-04-28T07:29:08.084Z,98531.45
2019-04-28T07:32:12.520Z,98528.80
2019-04-28T07:35:16.954Z,98522.11
2019-04-28T07:38:21.648Z,98528.41
2019-04-28T07:41:26.079Z,98530.41
2019-04-28T07:44:30.525Z,98523.83
2019-04-28T07:47:35.232Z,98517.98
2019-04-28T07:50:39.665Z,98520.34
2019-04-28T07:53:45.744Z,98519.56
2019-04-28T07:56:50.187Z,98518.50
2019-04-28T07:59:54.630Z,98523.59
2019-04-28T08:02:59.595Z,98530.56
2019-04-28T08:06:04.037Z,98543.50
2019-04-28T08:09:10.494Z,98539.16
2019-04-28T08:12:14.933Z,98550.11
2019-04-28T08:15:19.378Z,98545.09
2019-04-28T08:18:23.810Z,98548.51
2019-04-28T08:21:28.493Z,98547.18
2019-04-28T08:24:32.937Z,98542.27
2019-04-28T08:27:37.383Z,98542.84
2019-04-28T08:30:41.824Z,98538.91
2019-04-28T08:34:01.857Z,98535.42
2019-04-28T08:36:57.471Z,98530.42
2019-04-28T08:40:01.919Z,98532.97
2019-04-28T08:43:06.440Z,98531.27
2019-04-28T08:46:11.151Z,98522.52
2019-04-28T08:49:15.887Z,98525.79
2019-04-28T08:52:20.613Z,98518.84
2019-04-28T08:55:25.058Z,98524.04
2019-04-28T08:58:29.507Z,98529.32
2019-04-28T09:01:33.942Z,98529.41
2019-04-28T09:04:38.720Z,98532.14
2019-04-28T09:07:43.155Z,98539.72
2019-04-28T09:10:47.877Z,98540.79
2019-04-28T09:13:52.604Z,98537.59
2019-04-28T09:16:57.333Z,98543.50
2019-04-28T09:20:02.067Z,98548.84
2019-04-28T09:23:06.505Z,98548.31
2019-04-28T09:26:10.949Z,98543.77
2019-04-28T09:29:15.396Z,98535.45
2019-04-28T09:32:20.170Z,98520.64
2019-04-28T09:35:24.620Z,98525.72
2019-04-28T09:38:29.056Z,98522.14
2019-04-28T09:41:34.774Z,98526.63
2019-04-28T09:44:39.218Z,98520.05
2019-04-28T09:47:43.926Z,98523.77
2019-04-28T09:50:48.369Z,98515.91
2019-04-28T09:53:52.804Z,98516.14
2019-04-28T09:56:57.310Z,98518.51
2019-04-28T10:00:01.765Z,98521.02
2019-04-28T10:03:06.459Z,98523.23
2019-04-28T10:06:11.180Z,98522.56
2019-04-28T10:09:15.913Z,98520.27
2019-04-28T10:12:26.870Z,98529.86
2019-04-28T10:15:26.700Z,98524.61
2019-04-28T10:18:31.375Z,98532.47
2019-04-28T10:21:36.991Z,98534.88
2019-04-28T10:24:41.719Z,98538.66
2019-04-28T10:27:46.514Z,98540.26
2019-04-28T10:30:50.965Z,98532.48
2019-04-28T10:33:57.040Z,98531.69
2019-04-28T10:37:01.770Z,98533.00
2019-04-28T10:40:11.317Z,98528.70
2019-04-28T10:43:15.752Z,98529.77
2019-04-28T10:46:20.197Z,98530.59
2019-04-28T10:49:25.306Z,98533.55
2019-04-28T10:52:29.745Z,98529.53
2019-04-28T10:55:34.188Z,98526.32
2019-04-28T10:58:39.093Z,98540.53
2019-04-28T11:01:43.821Z,98539.45
2019-04-28T11:04:50.181Z,98538.39
2019-04-28T11:07:56.175Z,98541.36
2019-04-28T11:11:02.302Z,98541.86
2019-04-28T11:14:06.740Z,98546.66
2019-04-28T11:17:11.456Z,98549.91
2019-04-28T11:20:16.039Z,98550.94
2019-04-28T11:23:23.175Z,98549.89
2019-04-28T11:26:26.982Z,98549.64
2019-04-28T11:29:31.418Z,98552.05
2019-04-28T11:32:36.754Z,98549.64
2019-04-28T11:35:42.865Z,98548.83
2019-04-28T11:38:47.299Z,98546.97
2019-04-28T11:41:52.072Z,98544.02
2019-04-28T11:44:56.804Z,98544.04
2019-04-28T11:48:01.242Z,98550.47
2019-04-28T11:51:06.061Z,98545.10
2019-04-28T11:54:10.496Z,98547.97
2019-04-28T11:57:14.937Z,98554.96
2019-04-28T12:00:21.247Z,98547.64
2019-04-28T12:03:25.716Z,98550.91
2019-04-28T12:06:30.429Z,98542.09
2019-04-28T12:09:45.446Z,98544.81
2019-04-28T12:12:49.923Z,98542.66
2019-04-28T12:15:58.959Z,98545.87
2019-04-28T12:19:05.043Z,98551.77
2019-04-28T12:22:09.753Z,98541.07
2019-04-28T12:25:15.191Z,98531.94
2019-04-28T12:28:19.925Z,98533.00
2019-04-28T12:31:24.698Z,98527.91
2019-04-28T12:34:29.123Z,98527.65
2019-04-28T12:37:33.575Z,98533.54
2019-04-28T12:40:38.339Z,98524.44
2019-04-28T12:43:42.786Z,98523.33
2019-04-28T12:46:47.241Z,98523.27
2019-04-28T12:49:53.656Z,98515.18
2019-04-28T12:52:58.096Z,98508.52
2019-04-28T12:56:02.611Z,98500.59
2019-04-28T12:59:14.333Z,98503.80
2019-04-28T13:02:23.395Z,98503.16
2019-04-28T13:05:28.178Z,98495.67
2019-04-28T13:08:32.630Z,98492.70
2019-04-28T13:11:37.318Z,98488.83
2019-04-28T13:14:42.049Z,98485.19
2019-04-28T13:17:46.493Z,98482.54
2019-04-28T13:20:51.203Z,98475.70
2019-04-28T13:23:55.648Z,98472.39
2019-04-28T13:27:00.357Z,98465.91
2019-04-28T13:30:07.441Z,98461.58
2019-04-28T13:33:11.891Z,98457.22
2019-04-28T13:36:16.706Z,98453.58
2019-04-28T13:39:31.982Z,98449.08
2019-04-28T13:42:36.711Z,98442.91
2019-04-28T13:45:41.439Z,98438.09
2019-04-28T13:48:45.914Z,98438.16
2019-04-28T13:51:50.313Z,98430.95
2019-04-28T13:55:05.193Z,98428.33
2019-04-28T13:58:09.649Z,98419.11
2019-04-28T14:01:21.367Z,98417.02
2019-04-28T14:04:36.447Z,98411.72
2019-04-28T14:07:40.875Z,98419.55
2019-04-28T14:10:45.309Z,98411.39
2019-04-28T14:13:50.036Z,98411.83
2019-04-28T14:16:54.800Z,98413.17
2019-04-28T14:19:59.495Z,98403.41
2019-04-28T14:23:03.987Z,98408.73
2019-04-28T14:26:08.747Z,98406.92
2019-04-28T14:29:13.188Z,98405.53
2019-04-28T14:32:17.626Z,98399.11
2019-04-28T14:35:22.149Z,98400.15
2019-04-28T14:38:27.748Z,98401.06
2019-04-28T14:41:32.500Z,98400.67
2019-04-28T14:44:36.999Z,98402.78
2019-04-28T14:47:41.669Z,98401.94
2019-04-28T14:50:46.101Z,98406.27
2019-04-28T14:53:50.918Z,98406.33
2019-04-28T14:56:55.644Z,98407.34
2019-04-28T15:00:00.092Z,98410.86
2019-04-28T15:03:06.438Z,98404.11
2019-04-28T15:06:12.519Z,98412.32
2019-04-28T15:09:25.176Z,98408.83
2019-04-28T15:12:30.031Z,98408.05
2019-04-28T15:15:34.479Z,98410.56
2019-04-28T15:18:38.901Z,98410.63
2019-04-28T15:21:43.346Z,98414.58
2019-04-28T15:24:47.804Z,98418.55
2019-04-28T15:27:52.576Z,98420.86
2019-04-28T15:30:57.014Z,98418.72
2019-04-28T15:34:01.452Z,98416.22
2019-04-28T15:37:10.137Z,98415.45
2019-04-28T15:40:12.272Z,98417.77
2019-04-28T15:43:16.710Z,98414.56
2019-04-28T15:46:21.152Z,98413.02
2019-04-28T15:49:25.599Z,98421.02
2019-04-28T15:52:30.035Z,98420.06
2019-04-28T15:55:36.382Z,98422.44
2019-04-28T15:58:41.115Z,98416.77
2019-04-28T16:01:46.037Z,98419.31
2019-04-28T16:04:50.778Z,98411.78
2019-04-28T16:07:55.209Z,98417.69
2019-04-28T16:10:59.648Z,98417.10
2019-04-28T16:14:04.085Z,98411.17
2019-04-28T16:17:08.527Z,98414.70
2019-04-28T16:20:13.303Z,98414.62
2019-04-28T16:23:17.741Z,98412.50
2019-04-28T16:26:23.032Z,98416.45
2019-04-28T16:29:27.911Z,98410.11
2019-04-28T16:32:32.636Z,98421.88
2019-04-28T16:35:37.119Z,98418.33
2019-04-28T16:38:41.793Z,98419.13
2019-04-28T16:41:46.240Z,98424.41
2019-04-28T16:44:50.948Z,98427.25
2019-04-28T16:47:55.683Z,98428.39
2019-04-28T16:51:00.123Z,98429.51
2019-04-28T16:54:04.624Z,98429.81
2019-04-28T16:57:10.785Z,98431.53
2019-04-28T17:00:20.050Z,98438.27
2019-04-28T17:03:24.759Z,98444.34
2019-04-28T17:06:29.210Z,98447.73
2019-04-28T17:09:33.910Z,98445.98
2019-04-28T17:12:38.353Z,98448.16
2019-04-28T17:15:43.062Z,98451.65
2019-04-28T17:18:47.499Z,98453.30
2019-04-28T17:21:51.940Z,98453.92
2019-04-28T17:24:56.375Z,98454.21
2019-04-28T17:28:00.823Z,98453.94
2019-04-28T17:31:06.339Z,98454.23
2019-04-28T17:34:10.848Z,98460.46
2019-04-28T17:37:16.259Z,98460.70
2019-04-28T17:40:22.331Z,98467.80
2019-04-28T17:43:26.782Z,98466.66
2019-04-28T17:46:31.227Z,98470.17
2019-04-28T17:49:37.667Z,98485.52
2019-04-28T17:52:42.111Z,98485.52
2019-04-28T17:55:46.544Z,98489.91
2019-04-28T17:58:50.993Z,98495.61
2019-04-28T18:02:04.248Z,98503.43
2019-04-28T18:05:26.398Z,98510.96
2019-04-28T18:08:32.808Z,98512.31
2019-04-28T18:11:37.421Z,98507.47
2019-04-28T18:14:43.778Z,98509.36
2019-04-28T18:17:50.150Z,98514.99
2019-04-28T18:20:54.872Z,98522.81
2019-04-28T18:23:59.605Z,98531.66
2019-04-28T18:27:04.049Z,98527.10
2019-04-28T18:30:08.549Z,98530.59
2019-04-28T18:33:31.023Z,98537.58
2019-04-28T18:36:37.103Z,98532.73
2019-04-28T18:39:59.608Z,98540.50
2019-04-28T18:43:05.692Z,98535.66
2019-04-28T18:46:10.403Z,98546.42
2019-04-28T18:49:14.848Z,98555.27
2019-04-28T18:52:19.320Z,98560.36
2019-04-28T18:55:23.757Z,98573.45
2019-04-28T18:58:28.506Z,98582.52
2019-04-28T19:01:37.160Z,98580.38
2019-04-28T19:04:41.604Z,98589.42
2019-04-28T19:07:48.759Z,98596.44
2019-04-28T19:11:10.062Z,98599.02
2019-04-28T19:14:16.142Z,98606.66
2019-04-28T19:17:22.201Z,98613.86
2019-04-28T19:20:27.013Z,98619.41
2019-04-28T19:23:31.758Z,98620.86
2019-04-28T19:26:36.187Z,98623.47
2019-04-28T19:29:40.620Z,98623.20
2019-04-28T19:32:45.322Z,98626.63
2019-04-28T19:35:49.927Z,98632.30
2019-04-28T19:39:03.135Z,98627.66
2019-04-28T19:42:00.837Z,98629.55
2019-04-28T19:45:11.767Z,98627.95
2019-04-28T19:48:15.234Z,98632.77
2019-04-28T19:51:31.260Z,98631.20
2019-04-28T19:54:28.179Z,98625.16
2019-04-28T19:57:40.158Z,98632.20
2019-04-28T20:00:46.227Z,98635.20
2019-04-28T20:03:50.658Z,98630.43
2019-04-28T20:06:55.083Z,98633.63
2019-04-28T20:09:59.913Z,98632.20
2019-04-28T20:13:04.643Z,98634.36
2019-04-28T20:16:09.073Z,98644.83
2019-04-28T20:19:13.907Z,98650.83
2019-04-28T20:22:18.329Z,98654.79
2019-04-28T20:25:22.761Z,98653.54
2019-04-28T20:28:27.478Z,98655.95
2019-04-28T20:31:31.915Z,98654.33
2019-04-28T20:34:36.346Z,98649.50
2019-04-28T20:37:42.804Z,98652.05
2019-04-28T20:41:07.698Z,98655.19
2019-04-28T20:44:12.430Z,98655.45
2019-04-28T20:47:16.865Z,98663.51
2019-04-28T20:50:23.448Z,98664.55
2019-04-28T20:53:28.157Z,98670.55
2019-04-28T20:56:32.621Z,98673.22
2019-04-28T20:59:37.314Z,98670.73
2019-04-28T21:02:42.048Z,98668.73
2019-04-28T21:05:46.479Z,98670.50
2019-04-28T21:08:51.201Z,98671.23
2019-04-28T21:11:55.641Z,98672.19
2019-04-28T21:15:00.088Z,98672.91
2019-04-28T21:18:04.886Z,98671.69
2019-04-28T21:21:09.622Z,98668.92
2019-04-28T21:24:16.943Z,98674.80
2019-04-28T21:27:20.503Z,98678.65
2019-04-28T21:30:25.240Z,98690.47
2019-04-28T21:33:29.976Z,98687.93
2019-04-28T21:36:34.419Z,98691.52
2019-04-28T21:39:39.127Z,98685.50
2019-04-28T21:43:01.676Z,98695.63
2019-04-28T21:46:26.167Z,98697.59
2019-04-28T21:49:34.736Z,98690.80
2019-04-28T21:52:39.166Z,98694.94
2019-04-28T21:55:43.948Z,98701.41
2019-04-28T21:58:48.694Z,98706.30
2019-04-28T22:01:53.132Z,98708.47
2019-04-28T22:04:57.831Z,98699.70
2019-04-28T22:08:02.276Z,98698.99
2019-04-28T22:11:06.703Z,98706.23
2019-04-28T22:14:11.519Z,98706.13
2019-04-28T22:17:16.294Z,98707.19
2019-04-28T22:20:20.972Z,98703.24
2019-04-28T22:23:29.538Z,98708.80
2019-04-28T22:26:44.383Z,98706.48
2019-04-28T22:29:48.808Z,98709.19
2019-04-28T22:32:53.517Z,98707.56
2019-04-28T22:35:58.244Z,98712.92
2019-04-28T22:39:02.979Z,98717.13
2019-04-28T22:42:07.704Z,98717.46
2019-04-28T22:45:12.884Z,98718.05
2019-04-28T22:48:22.376Z,98712.28
2019-04-28T22:51:27.120Z,98716.48
2019-04-28T22:54:38.866Z,98717.25
2019-04-28T22:57:51.229Z,98723.73
2019-04-28T23:01:03.434Z,98719.89
2019-04-28T23:04:12.262Z,98723.59
2019-04-28T23:07:16.693Z,98728.17
2019-04-28T23:10:21.122Z,98729.55
2019-04-28T23:13:25.842Z,98733.52
2019-04-28T23:16:30.563Z,98728.28
2019-04-28T23:19:36.937Z,98736.55
2019-04-28T23:22:47.018Z,98726.48
2019-04-28T23:25:49.456Z,98724.58
2019-04-28T23:28:54.199Z,98720.80
2019-04-28T23:31:58.621Z,98719.52
2019-04-28T23:35:03.526Z,98727.68
2019-04-28T23:38:08.037Z,98723.59
2019-04-28T23:41:14.349Z,98727.28
2019-04-28T23:44:18.783Z,98721.77
2019-04-28T23:47:23.384Z,98722.03
2019-04-28T23:50:30.023Z,98720.28
2019-04-28T23:53:52.163Z,98731.52
2019-04-28T23:56:56.846Z,98722.95
